Data for 05/15/2005

Time Sea-Level Adjusted Pressure Absolute Pressure Temperature Relative Humidity Dew Point   
(mb) (inHg) (mb) (inHg) (C) (F) (%) (C) (F)
00:05 1018 30.06 847 25.01 11.6 52.9 66 5.4 41.7
00:10 1018 30.06 847 25.01 11.8 53.2 63 5.1 41.1
00:15 1018 30.06 847 25.01 11.6 53 64 5.1 41.2
00:20 1018 30.06 847 25.01 11.8 53.2 62 4.9 40.8
00:25 1018 30.06 847 25.01 11.9 53.4 64 5.3 41.5
00:30 1018 30.06 847 25.01 12.1 53.8 63 5.4 41.7
00:35 1018 30.06 847 25.01 12.6 54.8 56 4.2 39.5
00:40 1018 30.06 847 25.01 13.3 55.9 55 4.4 39.9
00:45 1018 30.06 847 25.01 13.4 56.1 54 4.2 39.6
00:50 1018 30.06 847 25.01 13.2 55.8 58 5.3 41.6
00:55 1018 30.06 847 25.01 13.1 55.6 61 5.9 42.5
01:00 1018 30.06 847 25.01 12.8 55.1 67 6.8 44.3
01:05 1018 30.06 847 25.01 12.7 54.8 69 7.1 44.7
01:10 1018 30.06 847 25.01 12.5 54.6 70 7.2 45
01:15 1018 30.06 847 25.01 12.3 54.2 72 7.4 45.4
01:20 1018 30.06 847 25.01 11.8 53.3 74 7.4 45.3
01:25 1018 30.06 847 25.01 11.6 52.8 73 7 44.6
01:30 1018 30.06 847 25.01 11.5 52.6 73 6.8 44.2
01:35 1018 30.06 847 25.01 11.6 52.9 70 6.4 43.5
01:40 1018 30.06 847 25.01 11.9 53.4 69 6.4 43.4
01:45 1018 30.06 847 25.01 11.8 53.2 67 5.9 42.7
01:50 1018 30.06 847 25.01 11.7 53.1 67 5.9 42.6
01:55 1018 30.06 847 25.01 11.9 53.3 67 6 42.7
02:00 1018 30.06 847 25.01 11.9 53.4 67 5.9 42.7
02:05 1018 30.06 847 25.01 11.7 53.1 67 5.8 42.5
02:10 1018 30.06 847 25.01 11.4 52.4 69 5.8 42.5
02:15 1018 30.06 847 25.01 11.2 52.1 69 5.7 42.3
02:20 1018 30.06 847 25.01 11.2 52.1 68 5.5 41.9
02:25 1018 30.06 847 25.01 11.4 52.5 67 5.6 42.1
02:30 1018 30.06 847 25.01 11.4 52.5 67 5.6 42.1
02:35 1018 30.06 847 25.01 11.2 52.2 68 5.5 41.9
02:40 1018 30.06 847 25.01 11.2 52.1 69 5.7 42.2
02:45 1018 30.06 847 25.01 11.1 52 68 5.4 41.8
02:50 1018 30.06 847 25.01 10.8 51.4 69 5.4 41.8
02:55 1018 30.06 847 25.01 10.2 50.3 71 5.1 41.1
03:00 1018 30.06 847 25.01 9.9 49.8 71 4.9 40.9
03:05 1018 30.06 847 25.01 9.9 49.8 71 4.9 40.8
03:10 1018 30.06 847 25.01 9.7 49.4 71 4.8 40.6
03:15 1018 30.06 847 25.01 9.5 49.1 72 4.7 40.5
03:20 1017 30.03 847 25.01 9.5 49.1 72 4.7 40.5
03:25 1017 30.03 847 25.01 9.6 49.3 71 4.7 40.5
03:30 1017 30.03 847 25.01 9.5 49.1 72 4.8 40.7
03:35 1017 30.03 847 25.01 9.3 48.7 74 4.9 40.8
03:40 1017 30.03 847 25.01 9.1 48.3 74 4.8 40.6
03:45 1017 30.03 847 25.01 8.9 48.1 75 4.7 40.4
03:50 1017 30.03 847 25.01 8.7 47.7 76 4.7 40.5
03:55 1017 30.03 846 24.98 8.5 47.3 77 4.7 40.4
04:00 1017 30.03 846 24.98 8.5 47.4 76 4.6 40.2
04:05 1017 30.03 846 24.98 8.8 47.8 74 4.5 40.1
04:10 1017 30.03 846 24.98 9.3 48.7 73 4.7 40.4
04:15 1017 30.03 846 24.98 9.1 48.4 76 5 41.1
04:20 1017 30.03 846 24.98 8.6 47.5 78 5 41
04:25 1017 30.03 846 24.98 8.5 47.2 78 4.9 40.8
04:30 1017 30.03 846 24.98 8.3 47 78 4.7 40.5
04:35 1017 30.03 846 24.98 8.4 47.1 77 4.7 40.4
04:40 1017 30.03 846 24.98 8.6 47.5 76 4.5 40.2
04:45 1017 30.03 846 24.98 9.1 48.4 71 4.1 39.3
04:50 1017 30.03 846 24.98 9.1 48.3 73 4.4 39.9
04:55 1017 30.03 846 24.98 8.7 47.6 75 4.5 40
05:00 1017 30.03 846 24.98 8.4 47.2 75 4.3 39.8
05:05 1017 30.03 846 24.98 8.4 47.2 74 4.1 39.4
05:10 1017 30.03 846 24.98 8.4 47.2 76 4.4 40
05:15 1017 30.03 846 24.98 8.5 47.3 75 4.3 39.7
05:20 1017 30.03 846 24.98 8.6 47.4 75 4.5 40
05:25 1017 30.03 846 24.98 8.4 47.1 76 4.5 40.1
05:30 1017 30.03 846 24.98 8.4 47.1 78 4.7 40.5
05:35 1017 30.03 846 24.98 8.5 47.3 76 4.6 40.3
05:40 1017 30.03 846 24.98 8.1 46.6 77 4.4 39.9
05:45 1017 30.03 846 24.98 7.7 45.8 78 4.1 39.4
05:50 1017 30.03 846 24.98 7.8 46 77 4 39.2
05:55 1017 30.03 846 24.98 8 46.3 75 3.8 38.9
06:00 1017 30.03 846 24.98 8.3 47 74 3.9 39
06:05 1017 30.03 846 24.98 8.3 47 74 3.9 39.1
06:10 1017 30.03 846 24.98 8.1 46.6 76 4.1 39.3
06:15 1017 30.03 846 24.98 7.8 46.1 76 3.9 38.9
06:20 1017 30.03 846 24.98 8.1 46.5 75 3.9 39
06:25 1017 30.03 846 24.98 8.2 46.8 74 3.9 39.1
06:30 1017 30.03 846 24.98 7.9 46.3 75 3.8 38.9
06:35 1017 30.03 846 24.98 8.1 46.5 74 3.8 38.8
06:40 1017 30.03 846 24.98 8.2 46.7 74 3.8 38.8
06:45 1017 30.03 846 24.98 8 46.5 75 3.8 38.9
06:50 1017 30.03 846 24.98 7.8 46 76 3.9 39
06:55 1017 30.03 846 24.98 7.6 45.6 77 3.9 39
07:00 1017 30.03 846 24.98 7.6 45.6 77 3.7 38.7
07:05 1017 30.03 846 24.98 7.8 46.1 76 3.8 38.9
07:10 1017 30.03 846 24.98 8.1 46.5 75 4 39.1
07:15 1017 30.03 846 24.98 8.2 46.7 75 4.1 39.4
07:20 1017 30.03 846 24.98 8.4 47.2 75 4.2 39.6
07:25 1017 30.03 846 24.98 8.7 47.6 73 4.2 39.6
07:30 1017 30.03 846 24.98 8.8 47.9 74 4.5 40
07:35 1017 30.03 846 24.98 9 48.2 73 4.3 39.8
07:40 1017 30.03 846 24.98 9.2 48.6 73 4.6 40.2
07:45 1017 30.03 846 24.98 9.4 48.8 74 4.9 40.8
07:50 1017 30.03 846 24.98 9.6 49.2 73 5 41
07:55 1017 30.03 846 24.98 9.9 49.8 72 5.1 41.1
08:00 1017 30.03 846 24.98 10.4 50.7 71 5.5 41.8
08:05 1017 30.03 846 24.98 10.4 50.8 71 5.5 41.9
08:10 1017 30.03 846 24.98 10.4 50.7 71 5.4 41.7
08:15 1017 30.03 846 24.98 10.8 51.4 70 5.6 42
08:20 1017 30.03 846 24.98 11 51.8 67 5.2 41.3
08:25 1017 30.03 846 24.98 11.4 52.5 67 5.5 41.9
08:30 1017 30.03 846 24.98 11.7 53 65 5.4 41.8
08:35 1017 30.03 846 24.98 12 53.6 63 5.3 41.6
08:40 1017 30.03 846 24.98 12.3 54.2 57 4.1 39.4
08:45 1017 30.03 846 24.98 12.6 54.6 58 4.6 40.2
08:50 1017 30.03 846 24.98 12.9 55.1 58 4.8 40.7
08:55 1017 30.03 846 24.98 12.9 55.3 59 5 41.1
09:00 1017 30.03 846 24.98 13.1 55.6 58 5 41
09:05 1017 30.03 846 24.98 12.9 55.3 58 4.9 40.7
09:10 1017 30.03 846 24.98 12.8 55 59 5 41
09:15 1017 30.03 846 24.98 12.9 55.3 59 5.1 41.2
09:20 1017 30.03 846 24.98 13.4 56.2 57 5.1 41.1
09:25 1017 30.03 846 24.98 13.5 56.2 57 5.2 41.4
09:30 1017 30.03 846 24.98 13.7 56.7 54 4.7 40.5
09:35 1017 30.03 846 24.98 14 57.3 54 4.8 40.7
09:40 1016 30 846 24.98 14.6 58.3 52 5.1 41.2
09:45 1016 30 846 24.98 14.6 58.2 53 5.3 41.6
09:50 1016 30 845 24.95 15.1 59.1 50 4.9 40.8
09:55 1016 30 845 24.95 15.8 60.5 50 5.4 41.7
10:00 1016 30 845 24.95 16 60.9 49 5.5 41.9
10:05 1016 30 845 24.95 15.9 60.7 50 5.5 42
10:10 1016 30 845 24.95 16.5 61.7 47 5.2 41.4
10:15 1016 30 845 24.95 16.8 62.2 47 5.6 42
10:20 1016 30 845 24.95 16.6 61.9 47 5.4 41.8
10:25 1016 30 845 24.95 15.9 60.6 50 5.6 42.2
10:30 1016 30 845 24.95 15.8 60.4 50 5.4 41.7
10:35 1016 30 845 24.95 16.2 61.2 48 5.3 41.5
10:40 1016 30 845 24.95 16.9 62.4 46 5.3 41.6
10:45 1016 30 845 24.95 17.2 62.9 46 5.5 41.9
10:50 1016 30 845 24.95 17.2 63 46 5.5 41.9
10:55 1016 30 845 24.95 17.5 63.5 44 5.2 41.4
11:00 1016 30 845 24.95 17.9 64.1 43 5.3 41.5
11:05 1015 29.97 845 24.95 17.5 63.6 42 4.6 40.3
11:10 1015 29.97 845 24.95 17.8 64.1 44 5.6 42.1
11:15 1015 29.97 844 24.92 17.1 62.8 45 5.2 41.4
11:20 1015 29.97 844 24.92 18 64.3 43 5.2 41.3
11:25 1015 29.97 844 24.92 18.5 65.2 41 5 41
11:30 1015 29.97 844 24.92 18.8 65.9 40 5.1 41.1
11:35 1015 29.97 844 24.92 19.5 67 38 5 40.9
11:40 1015 29.97 844 24.92 19.4 66.9 38 4.8 40.6
11:45 1015 29.97 844 24.92 19.9 67.7 36 4.5 40.2
11:50 1015 29.97 844 24.92 20 68.1 36 4.8 40.6
11:55 1015 29.97 844 24.92 19.6 67.4 39 5.3 41.6
12:00 1015 29.97 844 24.92 19.6 67.3 39 5.4 41.7
12:05 1015 29.97 844 24.92 20.3 68.5 35 4.6 40.2
12:10 1015 29.97 844 24.92 20.2 68.4 37 5.3 41.6
12:15 1015 29.97 844 24.92 20.5 68.8 38 5.7 42.2
12:20 1015 29.97 844 24.92 20.7 69.2 34 4.6 40.2
12:25 1015 29.97 844 24.92 21 69.8 35 5 40.9
12:30 1015 29.97 844 24.92 20.2 68.4 35 4.5 40
12:35 1015 29.97 844 24.92 21.2 70.2 34 4.8 40.6
12:40 1014 29.94 844 24.92 20.3 68.6 34 4.1 39.4
12:45 1014 29.94 844 24.92 20.6 69.1 34 4.5 40.2
12:50 1014 29.94 844 24.92 21.5 70.6 32 4.3 39.7
12:55 1014 29.94 843 24.89 21.7 71 30 3.5 38.3
13:00 1014 29.94 843 24.89 22 71.5 30 4 39.2
13:05 1014 29.94 843 24.89 22 71.7 32 4.7 40.5
13:10 1014 29.94 843 24.89 21.1 69.9 33 4.5 40.1
13:15 1014 29.94 843 24.89 21.6 70.8 33 4.7 40.4
13:20 1014 29.94 843 24.89 21.7 71.1 33 4.8 40.6
13:25 1014 29.94 843 24.89 21.5 70.8 33 4.7 40.4
13:30 1014 29.94 843 24.89 21.9 71.4 34 5.3 41.6
13:35 1014 29.94 843 24.89 21.1 70 37 5.9 42.6
13:40 1014 29.94 843 24.89 20.5 68.9 37 5.3 41.5
13:45 1014 29.94 843 24.89 20.9 69.7 37 5.9 42.5
13:50 1014 29.94 843 24.89 21.5 70.6 35 5.7 42.2
13:55 1013 29.91 843 24.89 21.9 71.4 33 4.9 40.9
14:00 1013 29.91 843 24.89 21.4 70.5 35 5.4 41.8
14:05 1013 29.91 843 24.89 21.7 71 31 4 39.2
14:10 1013 29.91 843 24.89 21.5 70.7 31 3.9 39
14:15 1013 29.91 842 24.86 21.6 70.9 31 4 39.2
14:20 1013 29.91 842 24.86 21.4 70.6 33 4.6 40.3
14:25 1013 29.91 842 24.86 21.6 70.9 31 4 39.3
14:30 1013 29.91 842 24.86 21.9 71.4 32 4.5 40.2
14:35 1013 29.91 842 24.86 21.9 71.4 32 4.8 40.7
14:40 1013 29.91 842 24.86 21.8 71.3 32 4.6 40.3
14:45 1013 29.91 842 24.86 22.1 71.7 32 4.8 40.6
14:50 1013 29.91 842 24.86 21.6 71 32 4.2 39.6
14:55 1013 29.91 842 24.86 21.3 70.3 28 2.2 35.9
15:00 1013 29.91 842 24.86 21.2 70.1 26 1.3 34.3
15:05 1013 29.91 842 24.86 21.3 70.3 29 2.8 37.1
15:10 1013 29.91 842 24.86 21.1 69.9 28 1.9 35.4
15:15 1013 29.91 842 24.86 20.6 69.1 30 2.5 36.4
15:20 1013 29.91 842 24.86 20.2 68.4 28 1.4 34.6
15:25 1013 29.91 842 24.86 20.3 68.5 29 2 35.6
15:30 1013 29.91 842 24.86 20 67.9 28 1.2 34.2
15:35 1013 29.91 842 24.86 20 68.1 28 1.1 33.9
15:40 1013 29.91 842 24.86 20.2 68.3 30 2.4 36.4
15:45 1013 29.91 842 24.86 19.9 67.8 32 2.8 37.1
15:50 1013 29.91 842 24.86 19.8 67.6 30 1.8 35.2
15:55 1013 29.91 842 24.86 19.8 67.7 30 2 35.5
16:00 1013 29.91 842 24.86 20.5 69 29 2 35.6
16:05 1012 29.88 842 24.86 20.8 69.5 28 1.9 35.4
16:10 1012 29.88 842 24.86 20.4 68.7 30 2.2 35.9
16:15 1012 29.88 842 24.86 21 69.7 27 1.6 34.9
16:20 1012 29.88 841 24.83 21.2 70.1 27 1.8 35.2
16:25 1012 29.88 841 24.83 21.3 70.4 28 2.1 35.7
16:30 1012 29.88 841 24.83 20.8 69.5 29 2.5 36.4
16:35 1012 29.88 841 24.83 20.8 69.4 30 2.6 36.8
16:40 1012 29.88 841 24.83 20.7 69.3 29 2.1 35.8
16:45 1012 29.88 841 24.83 20.7 69.3 29 2.3 36.1
16:50 1012 29.88 841 24.83 20.7 69.3 30 2.6 36.6
16:55 1012 29.88 841 24.83 20.5 68.9 30 2.7 36.8
17:00 1012 29.88 841 24.83 20.4 68.8 30 2.5 36.5
17:05 1012 29.88 841 24.83 20.3 68.5 31 2.9 37.2
17:10 1012 29.88 841 24.83 19.7 67.4 32 2.8 37.1
17:15 1012 29.88 841 24.83 19.4 67 33 2.9 37.3
17:20 1012 29.88 841 24.83 19 66.1 39 4.7 40.5
17:25 1012 29.88 841 24.83 18.4 65.2 36 3.3 37.9
17:30 1012 29.88 841 24.83 18.2 64.8 39 4.3 39.7
17:35 1012 29.88 841 24.83 17.9 64.2 41 4.5 40
17:40 1012 29.88 841 24.83 17.5 63.5 44 5.4 41.6
17:45 1012 29.88 841 24.83 17.3 63.1 47 6 42.8
17:50 1012 29.88 841 24.83 16.9 62.3 51 6.8 44.3
17:55 1012 29.88 841 24.83 16.6 61.9 51 6.4 43.5
18:00 1012 29.88 841 24.83 16 60.8 54 6.8 44.2
18:05 1012 29.88 841 24.83 15.7 60.2 56 6.9 44.5
18:10 1012 29.88 841 24.83 15.5 60 61 8.2 46.8
18:15 1012 29.88 841 24.83 15.3 59.5 59 7.5 45.6
18:20 1012 29.88 841 24.83 15.2 59.4 62 8 46.5
18:25 1012 29.88 841 24.83 15.1 59.2 61 7.6 45.7
18:30 1012 29.88 841 24.83 14.9 58.9 64 8.2 46.7
18:35 1012 29.88 841 24.83 14.6 58.3 66 8.4 47.1
18:40 1012 29.88 841 24.83 14.3 57.7 70 9 48.1
18:45 1012 29.88 841 24.83 14 57.3 72 9 48.3
18:50 1012 29.88 841 24.83 13.8 56.9 72 8.9 47.9
18:55 1012 29.88 841 24.83 13.7 56.7 73 9.1 48.3
19:00 1012 29.88 841 24.83 13.7 56.6 73 9 48.3
19:05 1012 29.88 841 24.83 13.8 56.9 72 9 48.2
19:10 1012 29.88 841 24.83 13.9 57 72 9 48.3
19:15 1012 29.88 841 24.83 13.9 57 74 9.4 48.9
19:20 1012 29.88 841 24.83 13.9 56.9 73 9.2 48.5
19:25 1011 29.85 841 24.83 13.9 56.9 71 8.7 47.7
19:30 1011 29.85 841 24.83 13.9 57 70 8.6 47.6
19:35 1011 29.85 840 24.81 13.9 57.1 69 8.4 47.2
19:40 1011 29.85 840 24.81 13.9 57 68 8.2 46.7
19:45 1011 29.85 840 24.81 14 57.1 68 8.3 46.9
19:50 1011 29.85 840 24.81 14 57.2 68 8.3 46.9
19:55 1011 29.85 840 24.81 14 57.2 67 8.1 46.5
20:00 1011 29.85 840 24.81 14 57.1 67 8.1 46.6
20:05 1011 29.85 840 24.81 13.9 57.1 68 8.2 46.7
20:10 1011 29.85 840 24.81 13.9 57.1 68 8.2 46.7
20:15 1011 29.85 840 24.81 13.9 57 69 8.4 47.1
20:20 1011 29.85 840 24.81 13.9 56.9 68 8.2 46.8
20:25 1011 29.85 840 24.81 13.8 56.8 69 8.4 47
20:30 1011 29.85 840 24.81 13.9 56.9 72 8.9 48
20:35 1011 29.85 840 24.81 13.8 56.9 69 8.4 47.1
20:40 1011 29.85 840 24.81 13.8 56.8 71 8.6 47.4
20:45 1011 29.85 840 24.81 13.7 56.6 71 8.5 47.2
20:50 1011 29.85 840 24.81 13.7 56.7 71 8.6 47.4
20:55 1011 29.85 840 24.81 13.7 56.7 71 8.5 47.4
21:00 1011 29.85 840 24.81 13.8 56.8 70 8.4 47.1
21:05 1011 29.85 840 24.81 13.8 56.9 69 8.3 46.9
21:10 1011 29.85 840 24.81 13.7 56.7 69 8.2 46.7
21:15 1011 29.85 840 24.81 13.7 56.7 69 8.2 46.7
21:20 1011 29.85 840 24.81 13.8 56.8 70 8.5 47.2
21:25 1011 29.85 840 24.81 13.8 56.8 68 7.9 46.3
21:30 1011 29.85 840 24.81 13.9 57 69 8.3 46.9
21:35 1011 29.85 840 24.81 13.8 56.9 68 8.1 46.6
21:40 1011 29.85 840 24.81 13.9 57.1 68 8.1 46.6
21:45 1011 29.85 840 24.81 13.9 57.1 67 7.9 46.2
21:50 1011 29.85 840 24.81 13.8 56.9 66 7.6 45.7
21:55 1011 29.85 840 24.81 14 57.3 63 7.2 44.9
22:00 1011 29.85 840 24.81 14.3 57.7 68 8.5 47.3
22:05 1011 29.85 840 24.81 14.1 57.4 66 8 46.3
22:10 1011 29.85 840 24.81 14 57.3 65 7.7 45.9
22:15 1011 29.85 840 24.81 14 57.3 65 7.6 45.6
22:20 1010 29.83 840 24.81 14 57.3 67 8.1 46.5
22:25 1010 29.83 840 24.81 13.8 56.8 67 7.9 46.3
22:30 1010 29.83 840 24.81 13.6 56.5 68 7.8 46
22:35 1010 29.83 840 24.81 13.6 56.5 68 7.8 46
22:40 1010 29.83 840 24.81 13.5 56.3 69 7.9 46.2
22:45 1010 29.83 840 24.81 13.5 56.2 69 7.9 46.2
22:50 1010 29.83 839 24.78 13.3 56 68 7.7 45.8
22:55 1010 29.83 839 24.78 13.2 55.8 69 7.7 45.9
23:00 1010 29.83 839 24.78 13.1 55.5 70 7.7 45.8
23:05 1010 29.83 839 24.78 13.1 55.5 68 7.3 45.1
23:10 1010 29.83 839 24.78 13.1 55.6 68 7.5 45.4
23:15 1010 29.83 839 24.78 13.1 55.5 68 7.3 45.1
23:20 1010 29.83 839 24.78 13.1 55.6 68 7.3 45.2
23:25 1010 29.83 839 24.78 13.1 55.5 68 7.4 45.3
23:30 1010 29.83 839 24.78 13 55.4 68 7.2 45
23:35 1010 29.83 839 24.78 13.1 55.5 67 7.1 44.7
23:40 1010 29.83 839 24.78 13.2 55.7 66 7 44.7
23:45 1010 29.83 839 24.78 13.2 55.8 66 7.1 44.7
23:50 1010 29.83 839 24.78 13.2 55.7 67 7.2 45
23:55 1010 29.83 839 24.78 13.1 55.6 68 7.4 45.3
24:00 1010 29.83 839 24.78 13.1 55.6 68 7.3 45.2